Wahneta, FL

6:44 AM EDT on May 30, 2016 (GMT -0400)
Winter Haven, FL | | Change Station

Elev 126 ft 28.02 °N, 81.71 °W | Updated 10 minutes ago

Partly Cloudy
Partly Cloudy
72.9 °F
Feels Like 72.9 °F
N
0.0
Wind Variable Wind from West

Today
High -- | Low -- °F
--% Chance of Precip.
Yesterday
High -- | Low -- °F
Precip. -- in
Pressure 30.01 in
Visibility 10.0 miles
Clouds Overcast 10000 ft
Dew Point 72 °F
Humidity 96%
Rainfall 0.00 in
Snow Depth Not available.
6:31 AM 8:18 PM
Last Quarter, 40% visible
METAR KGIF 300953Z AUTO VRB03KT 10SM OVC100 22/19 A3001 RMK AO2 SLP160 T02170189 TSNO
Pressure 30.01 in
Visibility 10.0 miles
Clouds Overcast 10000 ft
Dew Point 72 °F
Humidity 96%
Rainfall 0.00 in
Snow Depth Not available.
6:31 AM 8:18 PM
Last Quarter, 40% visible
METAR KGIF 300953Z AUTO VRB03KT 10SM OVC100 22/19 A3001 RMK AO2 SLP160 T02170189 TSNO

10-Day Weather Forecast

Almanac

Astronomy

May. 30, 2016 Rise Set
Actual Time
Civil Twilight
Nautical Twilight
Astronomical Twilight
Moon
Length of Visible Light
Length of Day
Tomorrow will be .
, % of the Moon is Illuminated

Today's Extremes

State Highs State Lows

Community

WunderPhotos

Upload Photos

1,914,621 photos uploaded!

WunderBlog® & News

Nearby

Air Quality

  Air Quality AQ Index Pollutant
Not available.

Snow Depth

Station Depth Elevation

Earthquake Activity

City Distance Mag. Time & Date
Minimum magnitude displayed is 2.5.

Coastal Water Temperatures

Place Temperature

Stations

Nearby Weather Stations

Station Location Temp. Windchill Dew Point Humidity Wind Precip. Elev Updated Type
                   

Watches & Warnings

There are currently no watches in effect.